Time;durP1;ratioP1;P1;durP2;ratioP2;P2;SDS_P1;SDS_P2;PMS_P1;PMS_P2;Temp;Humidity;BMP_temperature;BMP_pressure;BME280_temperature;BME280_humidity;BME280_pressure;Samples;Min_cycle;Max_cycle;Signal;HPM_P1;HPM_P2
2023/10/03 08:14:39;;;;;;;17.35;8.20;;;;;;;28.97;47.38;98068.22;1249044;75;2959919;-71
2023/10/03 08:17:11;;;;;;;12.85;7.35;;;;;;;30.16;45.45;98066.00;1224083;75;2929193;-69
2023/10/03 08:19:45;;;;;;;12.45;7.60;;;;;;;30.30;45.71;98069.81;1225488;75;2926531;-70
2023/10/03 08:22:20;;;;;;;12.55;6.60;;;;;;;32.37;42.25;98063.03;1224656;75;2923685;-71
2023/10/03 08:24:52;;;;;;;15.70;8.65;;;;;;;28.82;47.92;98070.00;1224903;75;2941775;-70
2023/10/03 08:27:30;;;;;;;13.40;8.10;;;;;;;27.08;52.49;98053.09;1225818;75;2917926;-70
2023/10/03 08:30:06;;;;;;;16.80;9.40;;;;;;;26.81;53.83;98048.19;1225316;75;2927745;-70
2023/10/03 08:32:39;;;;;;;15.05;9.60;;;;;;;25.15;57.73;98053.13;1225821;75;2942285;-68
2023/10/03 08:35:12;;;;;;;14.50;8.80;;;;;;;24.51;61.40;98052.38;1221407;75;2992517;-74
2023/10/03 08:37:45;;;;;;;15.20;8.00;;;;;;;24.88;61.38;98050.81;1224236;75;2930192;-74
2023/10/03 08:40:22;;;;;;;16.55;9.10;;;;;;;26.01;58.01;98058.44;1225275;75;2927726;-71
2023/10/03 08:42:58;;;;;;;12.70;8.40;;;;;;;25.23;60.85;98057.41;1224724;75;2926461;-74
2023/10/03 08:45:36;;;;;;;13.90;8.55;;;;;;;25.19;61.60;98053.53;1225085;75;2929147;-70
2023/10/03 08:48:09;;;;;;;12.80;8.30;;;;;;;24.98;60.53;98043.28;1225933;75;2917540;-73
2023/10/03 08:50:47;;;;;;;13.55;7.65;;;;;;;26.06;58.86;98043.44;1221541;75;3125142;-68
2023/10/03 08:53:29;;;;;;;12.60;8.40;;;;;;;24.45;62.67;98050.50;1225156;75;2928231;-69
2023/10/03 08:56:03;;;;;;;14.00;7.70;;;;;;;26.07;57.81;98035.75;1211232;83;4002292;-69
2023/10/03 08:58:39;;;;;;;12.10;7.90;;;;;;;26.16;58.49;98040.00;1224888;75;2919938;-74
2023/10/03 09:01:17;;;;;;;9.80;7.25;;;;;;;26.11;58.05;98036.13;1225260;75;2936999;-68
2023/10/03 09:04:04;;;;;;;14.90;8.90;;;;;;;24.45;62.61;98044.16;1221529;75;2985344;-69
2023/10/03 09:06:38;;;;;;;13.45;8.65;;;;;;;24.55;62.30;98035.97;1222447;75;2987203;-74
2023/10/03 09:09:13;;;;;;;13.65;8.30;;;;;;;24.99;62.08;98036.38;1225981;75;2924213;-72
2023/10/03 09:11:51;;;;;;;11.35;7.75;;;;;;;25.35;62.61;98026.91;1224927;75;2922887;-71
2023/10/03 09:14:23;;;;;;;14.60;9.10;;;;;;;24.01;65.44;98044.38;1224893;75;2933562;-72
2023/10/03 09:16:59;;;;;;;17.15;8.50;;;;;;;24.86;63.37;98031.00;1225904;75;2918101;-72
2023/10/03 09:19:45;;;;;;;14.65;9.10;;;;;;;24.08;65.71;98024.06;1225410;75;2925227;-69
2023/10/03 09:22:31;;;;;;;14.50;8.75;;;;;;;25.53;60.99;98022.13;1225668;75;2923118;-68
2023/10/03 09:25:07;;;;;;;12.90;8.60;;;;;;;24.48;63.51;98029.06;1223926;75;2918256;-70
2023/10/03 09:27:40;;;;;;;13.00;8.60;;;;;;;25.89;60.28;98024.50;1222901;75;2934133;-68
2023/10/03 09:30:22;;;;;;;14.30;8.90;;;;;;;24.38;63.54;98028.13;1222702;75;2942291;-73
2023/10/03 09:33:00;;;;;;;14.50;8.05;;;;;;;25.92;60.56;98019.81;1221379;75;3011569;-72
2023/10/03 09:35:33;;;;;;;10.90;7.30;;;;;;;27.27;58.07;98013.91;1224259;75;2926886;-70
2023/10/03 09:38:08;;;;;;;15.50;9.20;;;;;;;26.06;59.25;98012.59;1220367;75;2962454;-70
2023/10/03 09:40:51;;;;;;;13.50;7.90;;;;;;;26.73;57.70;98011.00;1223585;75;2923588;-70
2023/10/03 09:43:27;;;;;;;14.90;9.25;;;;;;;25.73;59.94;98003.47;1223712;75;2919910;-69
2023/10/03 09:46:01;;;;;;;16.45;9.50;;;;;;;24.61;64.13;98005.72;1223588;75;2924243;-70
2023/10/03 09:48:37;;;;;;;13.40;8.70;;;;;;;26.52;58.68;98003.72;1224917;75;2913868;-75
2023/10/03 09:51:13;;;;;;;16.30;10.00;;;;;;;25.53;61.13;98001.75;1222983;75;2938328;-69
2023/10/03 09:53:46;;;;;;;14.45;9.65;;;;;;;26.42;58.59;98008.50;1223613;75;2932577;-73
2023/10/03 09:56:20;;;;;;;15.90;11.10;;;;;;;25.55;61.35;98008.28;1223735;75;2920732;-75
2023/10/03 09:58:56;;;;;;;14.20;10.25;;;;;;;25.04;62.03;98001.81;1224460;75;2922794;-75
2023/10/03 10:01:30;;;;;;;16.25;9.80;;;;;;;26.26;59.83;98002.28;1223970;75;2921529;-71
2023/10/03 10:04:07;;;;;;;14.10;8.80;;;;;;;25.95;60.16;98003.88;1224246;75;2920642;-70
2023/10/03 10:06:51;;;;;;;14.60;9.10;;;;;;;26.60;58.42;98000.84;1224041;75;2923784;-71
2023/10/03 10:09:31;;;;;;;16.10;8.75;;;;;;;25.99;61.05;98001.44;1223867;75;2915222;-68
2023/10/03 10:12:19;;;;;;;15.10;8.60;;;;;;;26.00;58.97;98005.72;1223609;75;2936927;-70
2023/10/03 10:15:17;;;;;;;;;;;;;;;27.28;56.38;98000.63;1225217;75;2927367;-71
2023/10/03 10:17:55;;;;;;;14.75;8.70;;;;;;;27.12;57.51;98000.78;1224458;75;2922970;-68
2023/10/03 10:20:37;;;;;;;12.65;8.35;;;;;;;28.35;53.27;97993.28;1223613;75;2922249;-68
2023/10/03 10:23:20;;;;;;;14.50;9.30;;;;;;;27.53;56.11;97989.91;1223898;75;2923929;-70
2023/10/03 10:25:56;;;;;;;12.35;9.10;;;;;;;29.68;51.65;97987.94;1218773;75;3086704;-71
2023/10/03 10:28:37;;;;;;;18.20;11.95;;;;;;;28.78;53.09;97985.16;1223845;75;2924935;-73
2023/10/03 10:31:29;;;;;;;16.45;9.85;;;;;;;27.29;56.32;97988.03;1223658;75;2931223;-69
2023/10/03 10:34:37;;;;;;;15.15;9.50;;;;;;;27.30;57.20;97989.50;1222260;75;2925160;-72
2023/10/03 10:37:15;;;;;;;12.90;8.50;;;;;;;26.53;57.65;97979.19;1224285;75;2918027;-72
2023/10/03 10:40:24;;;;;;;11.50;8.10;;;;;;;28.01;55.54;97986.56;1223203;75;2922688;-71
2023/10/03 10:42:59;;;;;;;14.30;8.20;;;;;;;27.63;54.74;97982.25;1223728;75;2920046;-69
2023/10/03 10:45:37;;;;;;;15.75;9.55;;;;;;;26.59;58.48;97976.16;1220529;75;3099077;-72
2023/10/03 10:48:12;;;;;;;15.10;8.35;;;;;;;27.37;56.65;97972.56;1223103;75;2943389;-69
2023/10/03 10:51:13;;;;;;;15.50;8.95;;;;;;;26.90;58.12;97976.53;1224031;75;2916169;-70
2023/10/03 10:53:51;;;;;;;14.80;8.85;;;;;;;27.86;56.14;97983.28;1223089;75;2935832;-72
2023/10/03 10:56:24;;;;;;;;;;;;;;;28.89;53.57;97987.38;1224721;75;2942731;-74
2023/10/03 10:59:04;;;;;;;11.80;7.70;;;;;;;29.34;53.08;97978.53;1223325;75;2932676;-70
2023/10/03 11:01:44;;;;;;;13.80;8.05;;;;;;;29.35;51.46;97970.84;1222879;75;2935682;-70
2023/10/03 11:04:27;;;;;;;13.85;8.70;;;;;;;28.61;54.09;97974.78;1222988;75;2925878;-69
2023/10/03 11:07:00;;;;;;;12.75;8.70;;;;;;;27.74;55.38;97972.53;1211137;75;3926974;-69
2023/10/03 11:09:39;;;;;;;11.25;7.55;;;;;;;29.97;51.83;97953.94;1224088;75;2927980;-69
2023/10/03 11:12:12;;;;;;;10.00;6.15;;;;;;;30.04;51.11;97947.34;1217148;75;3123459;-71
2023/10/03 11:14:50;;;;;;;11.10;6.65;;;;;;;29.57;51.23;97949.06;1224217;75;2918772;-69
2023/10/03 11:17:23;;;;;;;11.90;7.10;;;;;;;29.89;51.26;97947.72;1224456;75;2929671;-69
2023/10/03 11:19:58;;;;;;;10.85;6.45;;;;;;;31.15;48.73;97943.16;1223093;75;2921857;-73
2023/10/03 11:22:31;;;;;;;10.85;7.30;;;;;;;30.70;49.25;97943.13;1223686;75;2923047;-71
2023/10/03 11:25:12;;;;;;;13.70;8.90;;;;;;;30.14;50.71;97930.34;1220422;75;3072467;-68
2023/10/03 11:27:46;;;;;;;13.00;8.10;;;;;;;30.63;49.83;97935.59;1221591;75;3020526;-73
2023/10/03 11:30:22;;;;;;;10.30;6.95;;;;;;;30.69;49.52;97930.31;1223894;75;2932048;-72
2023/10/03 11:33:03;;;;;;;13.10;8.30;;;;;;;30.39;50.56;97932.69;1207743;75;3798521;-72
2023/10/03 11:35:36;;;;;;;12.00;8.15;;;;;;;30.19;51.20;97932.06;1220935;75;2960101;-73
2023/10/03 11:38:10;;;;;;;13.95;8.25;;;;;;;30.14;51.94;97935.97;1223403;75;2924759;-72
2023/10/03 11:40:47;;;;;;;14.15;8.55;;;;;;;28.59;54.96;97935.19;1223856;75;2926789;-71
2023/10/03 11:43:26;;;;;;;13.80;8.60;;;;;;;29.52;52.90;97914.19;1223388;75;2921973;-69
2023/10/03 11:46:02;;;;;;;12.70;8.40;;;;;;;29.18;54.36;97921.75;1223155;75;2932721;-73
2023/10/03 11:48:35;;;;;;;17.05;9.40;;;;;;;28.46;55.79;97922.31;1224100;75;2927077;-68
2023/10/03 11:51:08;;;;;;;9.70;6.25;;;;;;;31.06;49.53;97912.88;1223038;75;2924713;-73
2023/10/03 11:53:40;;;;;;;13.95;7.50;;;;;;;30.57;50.85;97916.16;1223918;75;2933208;-75
2023/10/03 11:56:17;;;;;;;11.55;7.45;;;;;;;30.10;51.38;97911.03;1224065;75;2924699;-69
2023/10/03 11:58:50;;;;;;;13.60;8.50;;;;;;;30.23;50.24;97909.72;1223571;75;2935143;-73
2023/10/03 12:01:23;;;;;;;14.05;8.75;;;;;;;29.94;50.44;97902.22;1224115;75;2925321;-74
2023/10/03 12:03:56;;;;;;;13.70;8.45;;;;;;;30.33;49.91;97901.97;1223484;75;2922571;-72
2023/10/03 12:06:31;;;;;;;12.35;7.65;;;;;;;29.85;51.02;97896.63;1223752;75;2922380;-73
2023/10/03 12:09:04;;;;;;;15.00;9.00;;;;;;;29.66;51.28;97892.63;1223683;75;2926033;-71
2023/10/03 12:11:43;;;;;;;11.50;7.30;;;;;;;30.73;48.63;97891.75;1222960;75;2940673;-73
2023/10/03 12:14:16;;;;;;;13.45;7.65;;;;;;;30.79;48.70;97883.69;1223570;75;2932826;-73
2023/10/03 12:16:51;;;;;;;14.60;8.45;;;;;;;29.46;51.47;97891.94;1224382;75;2922521;-73
2023/10/03 12:19:24;;;;;;;14.15;8.50;;;;;;;29.78;50.88;97877.81;1223975;75;2932566;-72
2023/10/03 12:21:56;;;;;;;13.35;7.85;;;;;;;30.18;50.19;97876.94;1223891;75;2921176;-72
2023/10/03 12:24:29;;;;;;;7.85;5.55;;;;;;;31.78;47.72;97875.47;1224369;75;2916075;-69
2023/10/03 12:27:05;;;;;;;9.00;5.20;;;;;;;32.07;47.45;97872.22;1224379;75;2922811;-70
2023/10/03 12:29:37;;;;;;;9.20;5.40;;;;;;;32.59;46.39;97870.16;1223777;75;2931221;-70
2023/10/03 12:32:10;;;;;;;7.55;4.75;;;;;;;32.13;46.54;97869.72;1222955;75;2932528;-71
2023/10/03 12:34:43;;;;;;;6.90;4.20;;;;;;;33.44;45.17;97867.59;1223278;75;2938762;-70
2023/10/03 12:37:18;;;;;;;9.80;5.75;;;;;;;32.82;45.52;97872.13;1224102;75;2919797;-71
2023/10/03 12:39:51;;;;;;;8.70;5.80;;;;;;;32.64;45.76;97863.34;1223963;75;2923158;-76
2023/10/03 12:42:26;;;;;;;7.40;5.10;;;;;;;33.27;44.61;97866.75;1222841;75;2928559;-72
2023/10/03 12:45:00;;;;;;;9.90;6.00;;;;;;;33.57;44.67;97866.88;1221956;83;2946176;-72
2023/10/03 12:47:35;;;;;;;9.25;5.90;;;;;;;34.23;42.38;97853.09;1223615;75;2926320;-70
2023/10/03 12:50:10;;;;;;;12.80;7.30;;;;;;;33.04;43.83;97866.94;1223832;75;2930334;-71
2023/10/03 12:52:42;;;;;;;11.55;6.95;;;;;;;32.54;44.97;97857.13;1221471;75;2921250;-72
2023/10/03 12:55:15;;;;;;;10.75;6.95;;;;;;;32.92;44.36;97858.50;1223972;75;2939016;-73
2023/10/03 12:57:53;;;;;;;10.10;6.90;;;;;;;32.87;44.60;97851.84;1224029;75;2953800;-72
2023/10/03 13:00:26;;;;;;;11.15;6.10;;;;;;;32.98;43.54;97843.91;1223947;75;2926133;-70
2023/10/03 13:03:00;;;;;;;12.85;7.75;;;;;;;31.48;47.38;97846.13;1211951;75;3789751;-72
2023/10/03 13:05:35;;;;;;;12.40;6.80;;;;;;;33.18;44.46;97836.50;1223633;75;2924689;-71
2023/10/03 13:08:08;;;;;;;11.10;6.85;;;;;;;32.29;45.67;97849.34;1224075;75;2915868;-72
2023/10/03 13:10:41;;;;;;;9.10;5.60;;;;;;;33.38;43.39;97850.25;1224197;75;2925536;-74
2023/10/03 13:13:17;;;;;;;8.00;5.70;;;;;;;33.47;43.42;97843.63;1224178;75;2934902;-70
2023/10/03 13:15:54;;;;;;;11.10;7.00;;;;;;;32.01;45.30;97855.59;1210324;75;3895610;-72
2023/10/03 13:18:27;;;;;;;10.20;7.00;;;;;;;32.09;45.14;97855.34;1223166;75;2919889;-67
2023/10/03 13:20:59;;;;;;;10.80;7.10;;;;;;;32.36;45.57;97851.16;1224448;75;2932687;-69
2023/10/03 13:23:32;;;;;;;8.90;5.80;;;;;;;32.82;44.33;97840.94;1224450;75;2920595;-71
2023/10/03 13:26:05;;;;;;;13.10;8.10;;;;;;;31.20;45.91;97843.78;1224516;75;2918599;-71
2023/10/03 13:28:40;;;;;;;11.60;8.15;;;;;;;31.45;46.41;97838.88;1224273;75;2920115;-76
2023/10/03 13:31:13;;;;;;;11.90;7.60;;;;;;;30.44;48.98;97840.47;1224454;83;2927185;-69
2023/10/03 13:33:46;;;;;;;10.90;6.65;;;;;;;31.77;45.58;97837.91;1223802;75;2920208;-73
2023/10/03 13:36:20;;;;;;;8.10;5.05;;;;;;;32.62;44.30;97841.31;1224367;75;2930453;-75
2023/10/03 13:38:54;;;;;;;8.00;5.75;;;;;;;32.24;43.78;97837.78;1224041;75;2933866;-71
2023/10/03 13:41:27;;;;;;;10.30;7.10;;;;;;;31.46;45.37;97838.25;1223652;75;2916329;-71
2023/10/03 13:44:04;;;;;;;7.20;5.10;;;;;;;32.52;44.13;97840.00;1223537;75;2922568;-75
2023/10/03 13:46:37;;;;;;;9.80;6.45;;;;;;;31.86;45.50;97847.63;1224403;75;2920915;-72
2023/10/03 13:49:10;;;;;;;12.40;7.35;;;;;;;31.43;45.92;97836.66;1222120;75;2949340;-72
2023/10/03 13:51:44;;;;;;;11.95;7.95;;;;;;;30.47;47.61;97836.41;1211153;75;3837826;-71
2023/10/03 13:54:16;;;;;;;14.30;7.50;;;;;;;29.57;50.66;97839.03;1223682;75;2932115;-69
2023/10/03 13:56:49;;;;;;;10.40;6.70;;;;;;;29.90;49.87;97836.31;1223160;75;2925306;-72
2023/10/03 13:59:27;;;;;;;12.25;8.00;;;;;;;29.49;50.12;97834.34;1224236;75;2928479;-74
2023/10/03 14:02:00;;;;;;;10.40;7.70;;;;;;;29.57;50.33;97836.22;1223465;75;2924563;-72
2023/10/03 14:04:33;;;;;;;14.95;7.95;;;;;;;28.92;51.53;97832.53;1223370;75;2924184;-72
2023/10/03 14:07:06;;;;;;;11.60;7.30;;;;;;;29.40;51.20;97828.75;1223509;75;2931585;-73
2023/10/03 14:09:39;;;;;;;9.20;6.35;;;;;;;29.60;50.92;97829.38;1223308;75;2927824;-73
2023/10/03 14:12:12;;;;;;;11.20;6.80;;;;;;;29.56;51.73;97829.09;1209016;75;3802306;-70
2023/10/03 14:14:47;;;;;;;11.40;7.05;;;;;;;29.18;51.16;97830.81;1223876;75;2916691;-74
2023/10/03 14:17:20;;;;;;;12.10;7.20;;;;;;;29.19;51.23;97833.00;1220419;75;3028223;-74
2023/10/03 14:19:52;;;;;;;10.85;7.10;;;;;;;29.53;51.79;97828.94;1223771;75;2926992;-71
2023/10/03 14:22:25;;;;;;;8.45;5.75;;;;;;;29.45;51.81;97827.69;1223327;75;2920647;-68
2023/10/03 14:24:58;;;;;;;9.25;5.85;;;;;;;29.15;52.31;97829.16;1224610;75;2917291;-75
2023/10/03 14:27:30;;;;;;;9.65;6.20;;;;;;;28.71;53.56;97836.72;1223771;75;2916353;-72
2023/10/03 14:30:07;;;;;;;10.85;7.35;;;;;;;27.99;54.61;97828.06;1223905;75;2922192;-72
2023/10/03 14:32:40;;;;;;;10.95;7.40;;;;;;;27.53;55.83;97835.25;1223298;75;2932849;-71
2023/10/03 14:35:14;;;;;;;10.20;7.20;;;;;;;27.56;56.41;97831.25;1224261;75;2926567;-69
2023/10/03 14:37:46;;;;;;;10.65;6.35;;;;;;;28.23;55.31;97834.72;1221707;75;3002637;-71
2023/10/03 14:40:20;;;;;;;14.45;8.15;;;;;;;27.02;57.70;97833.47;1223858;75;2929885;-73
2023/10/03 14:42:53;;;;;;;12.15;7.40;;;;;;;27.27;57.17;97839.63;1223432;75;2925196;-69
2023/10/03 14:45:29;;;;;;;10.65;6.60;;;;;;;27.51;56.73;97826.66;1221830;75;2924306;-71
2023/10/03 14:48:02;;;;;;;11.75;7.65;;;;;;;26.82;58.07;97822.16;1221862;75;2973996;-71
2023/10/03 14:50:35;;;;;;;13.90;8.20;;;;;;;27.01;59.35;97821.47;1222238;83;2924905;-73
2023/10/03 14:53:09;;;;;;;11.65;8.00;;;;;;;26.87;58.79;97826.75;1223126;75;2924605;-70
2023/10/03 14:55:42;;;;;;;14.30;7.95;;;;;;;26.48;60.31;97829.34;1223993;75;2920238;-68
2023/10/03 14:58:14;;;;;;;7.30;5.15;;;;;;;27.61;58.22;97829.50;1223722;75;2923524;-72
2023/10/03 15:00:50;;;;;;;9.35;5.25;;;;;;;27.34;58.32;97830.31;1223919;75;2915058;-71
2023/10/03 15:03:22;;;;;;;9.35;6.05;;;;;;;26.86;58.70;97836.50;1222910;75;2937846;-72
2023/10/03 15:05:55;;;;;;;11.55;6.55;;;;;;;27.02;57.99;97830.66;1223502;75;2920813;-69
2023/10/03 15:08:28;;;;;;;9.40;6.55;;;;;;;27.40;57.92;97832.88;1223663;75;2914947;-70
2023/10/03 15:11:05;;;;;;;8.95;6.05;;;;;;;27.29;58.89;97836.97;1223793;75;2924230;-75
2023/10/03 15:13:38;;;;;;;11.30;6.30;;;;;;;26.87;59.64;97838.00;1223471;75;2915797;-72
2023/10/03 15:16:13;;;;;;;11.35;6.90;;;;;;;26.55;61.23;97841.78;1224092;75;2925742;-72
2023/10/03 15:18:46;;;;;;;10.85;7.05;;;;;;;26.58;61.32;97829.41;1223471;75;2921937;-75
2023/10/03 15:21:18;;;;;;;11.45;7.50;;;;;;;26.52;62.75;97837.31;1222282;75;2969635;-71
2023/10/03 15:23:51;;;;;;;9.30;5.55;;;;;;;26.84;61.30;97838.41;1220507;75;3081524;-70
2023/10/03 15:26:24;;;;;;;8.10;5.35;;;;;;;26.62;62.24;97838.13;1224899;75;2916381;-67
2023/10/03 15:28:56;;;;;;;12.10;7.10;;;;;;;26.35;64.02;97836.03;1221437;75;2951485;-68
2023/10/03 15:31:31;;;;;;;10.80;6.70;;;;;;;26.49;63.50;97841.31;1224284;75;2919790;-73
2023/10/03 15:34:04;;;;;;;10.95;6.65;;;;;;;26.12;65.56;97844.75;1224506;75;2918991;-67
2023/10/03 15:36:38;;;;;;;10.40;6.50;;;;;;;25.92;66.88;97829.81;1222693;75;3018424;-69
2023/10/03 15:39:14;;;;;;;10.20;6.80;;;;;;;25.67;68.63;97818.66;1224472;75;2920263;-70
2023/10/03 15:41:48;;;;;;;9.70;6.30;;;;;;;25.62;69.17;97827.31;1224304;75;2922887;-72
2023/10/03 15:44:20;;;;;;;7.85;5.00;;;;;;;25.95;68.22;97822.28;1224372;75;2943156;-72
2023/10/03 15:46:56;;;;;;;9.30;4.85;;;;;;;25.77;69.27;97829.94;1221497;75;3060761;-70
2023/10/03 15:49:29;;;;;;;11.15;6.80;;;;;;;25.40;72.60;97829.75;1224290;75;2920121;-72
2023/10/03 15:52:03;;;;;;;8.15;5.60;;;;;;;25.23;73.77;97835.28;1224066;75;2928908;-70
2023/10/03 15:54:36;;;;;;;8.90;5.55;;;;;;;25.49;72.90;97834.69;1223982;75;2920768;-74
2023/10/03 15:57:10;;;;;;;7.05;5.00;;;;;;;25.68;72.53;97836.22;1224727;75;2925632;-74
2023/10/03 15:59:43;;;;;;;6.00;3.10;;;;;;;25.81;72.31;97835.91;1221038;75;2997531;-70
2023/10/03 16:02:19;;;;;;;4.95;3.20;;;;;;;25.79;72.45;97846.94;1224798;67;2925427;-71
2023/10/03 16:04:52;;;;;;;4.75;3.10;;;;;;;25.40;74.35;97840.19;1224225;75;2921645;-68
2023/10/03 16:07:24;;;;;;;3.75;2.35;;;;;;;25.31;75.41;97846.47;1221683;75;3014775;-69
2023/10/03 16:09:58;;;;;;;3.65;2.30;;;;;;;25.24;76.46;97845.19;1224459;75;2912043;-71
2023/10/03 16:12:32;;;;;;;4.50;2.45;;;;;;;25.13;76.98;97846.38;1223716;75;2921822;-71
2023/10/03 16:15:05;;;;;;;4.00;2.35;;;;;;;25.03;78.61;97848.31;1224070;75;2919679;-73
2023/10/03 16:17:41;;;;;;;3.50;2.05;;;;;;;24.91;80.18;97842.41;1224655;75;2915684;-70
2023/10/03 16:20:16;;;;;;;4.10;2.30;;;;;;;24.62;84.12;97839.25;1224493;75;2923313;-71
2023/10/03 16:22:48;;;;;;;4.60;2.45;;;;;;;24.48;85.11;97843.59;1220983;75;3051777;-73
2023/10/03 16:25:24;;;;;;;4.50;2.70;;;;;;;24.42;85.19;97846.59;1221259;75;2965483;-68
2023/10/03 16:27:57;;;;;;;5.00;3.20;;;;;;;24.33;87.16;97842.34;1223487;75;2913931;-73
2023/10/03 16:30:31;;;;;;;4.60;3.00;;;;;;;24.19;90.07;97847.41;1224790;75;2923149;-69
2023/10/03 16:33:08;;;;;;;4.80;2.90;;;;;;;24.04;92.17;97844.69;1224539;75;2943052;-73
2023/10/03 16:35:40;;;;;;;4.45;2.90;;;;;;;23.88;96.31;97849.56;1225022;75;2922447;-71
2023/10/03 16:38:14;;;;;;;4.65;2.80;;;;;;;23.72;98.40;97848.84;1225170;75;2913460;-67
2023/10/03 16:40:48;;;;;;;4.85;3.15;;;;;;;23.63;100.00;97848.69;1224957;75;2919162;-70
2023/10/03 16:43:21;;;;;;;5.30;3.70;;;;;;;23.41;100.00;97864.91;1221935;75;2999397;-70
2023/10/03 16:45:54;;;;;;;6.35;3.55;;;;;;;23.31;100.00;97855.59;1224927;75;2927644;-72
2023/10/03 16:48:29;;;;;;;5.25;3.25;;;;;;;23.22;100.00;97856.16;1207402;75;4077011;-75
2023/10/03 16:51:01;;;;;;;4.45;2.50;;;;;;;23.15;100.00;97861.16;1225353;75;2916637;-72
2023/10/03 16:53:34;;;;;;;4.30;2.85;;;;;;;22.97;100.00;97857.41;1224797;75;2921716;-70
2023/10/03 16:56:07;;;;;;;5.45;3.20;;;;;;;22.92;100.00;97863.91;1224064;75;2920954;-70
2023/10/03 16:58:40;;;;;;;6.40;3.40;;;;;;;22.77;100.00;97856.22;1224913;75;2923520;-67
2023/10/03 17:01:13;;;;;;;6.00;3.70;;;;;;;22.69;100.00;97854.75;1224330;75;2913672;-68
2023/10/03 17:03:48;;;;;;;5.45;4.00;;;;;;;22.49;100.00;97859.91;1223793;75;2952643;-73
2023/10/03 17:06:21;;;;;;;5.65;3.90;;;;;;;22.41;100.00;97853.53;1221847;75;3000902;-74
2023/10/03 17:08:54;;;;;;;5.75;3.70;;;;;;;22.25;100.00;97858.31;1225183;75;2923035;-69
2023/10/03 17:11:26;;;;;;;6.10;3.80;;;;;;;22.09;100.00;97848.34;1225456;75;2913206;-71
2023/10/03 17:13:59;;;;;;;6.05;3.95;;;;;;;22.08;100.00;97858.00;1224942;75;2924604;-73
2023/10/03 17:16:31;;;;;;;5.15;3.50;;;;;;;21.99;100.00;97853.69;1225009;75;2919367;-70
2023/10/03 17:19:08;;;;;;;5.70;3.55;;;;;;;21.76;100.00;97852.81;1196573;75;4936241;-68
2023/10/03 17:21:40;;;;;;;5.20;3.60;;;;;;;21.68;100.00;97839.59;1224681;75;2913763;-71
2023/10/03 17:24:14;;;;;;;7.10;3.80;;;;;;;21.64;100.00;97844.00;1223094;67;2962710;-69
2023/10/03 17:26:47;;;;;;;4.95;3.20;;;;;;;21.61;100.00;97851.44;1223081;83;2925706;-68
2023/10/03 17:29:19;;;;;;;3.75;2.75;;;;;;;21.60;100.00;97846.38;1221807;75;3099555;-72
2023/10/03 17:31:52;;;;;;;4.70;2.90;;;;;;;21.45;100.00;97855.38;1211052;75;3819295;-77
2023/10/03 17:34:29;;;;;;;4.50;3.15;;;;;;;21.03;100.00;97858.91;1224890;75;2932001;-73
2023/10/03 17:37:02;;;;;;;15.80;10.40;;;;;;;19.95;100.00;97856.94;1224521;75;2915439;-69
2023/10/03 17:39:36;;;;;;;10.85;8.25;;;;;;;20.71;100.00;97861.97;1225237;75;2919226;-70
2023/10/03 17:42:09;;;;;;;10.65;6.85;;;;;;;20.58;100.00;97861.97;1222827;75;2984986;-70
2023/10/03 17:44:41;;;;;;;10.10;7.25;;;;;;;20.68;100.00;97876.19;1223832;75;2916881;-72
2023/10/03 17:47:15;;;;;;;8.45;6.40;;;;;;;20.44;100.00;97864.03;1225612;75;2918579;-68
2023/10/03 17:49:50;;;;;;;9.25;6.85;;;;;;;20.44;100.00;97869.56;1220293;75;3127952;-71
2023/10/03 17:52:22;;;;;;;7.60;5.45;;;;;;;20.49;100.00;97870.75;1224525;75;2931472;-67
2023/10/03 17:54:55;;;;;;;7.25;5.00;;;;;;;20.47;100.00;97876.88;1212531;75;3861300;-74
2023/10/03 17:57:28;;;;;;;5.55;4.15;;;;;;;20.56;100.00;97879.19;1225187;75;2935513;-73
2023/10/03 18:00:01;;;;;;;6.50;4.15;;;;;;;20.54;100.00;97872.66;1226000;75;2880526;-70
2023/10/03 18:02:34;;;;;;;4.65;3.80;;;;;;;20.56;100.00;97867.34;1225549;75;2915848;-68
2023/10/03 18:05:11;;;;;;;5.35;3.95;;;;;;;20.48;100.00;97872.03;1225310;75;2912439;-67
2023/10/03 18:07:43;;;;;;;4.75;3.50;;;;;;;20.35;100.00;97870.06;1225898;75;2919036;-69
2023/10/03 18:10:18;;;;;;;6.05;3.95;;;;;;;20.22;100.00;97884.69;1223932;75;2917768;-72
2023/10/03 18:12:51;;;;;;;5.90;4.25;;;;;;;20.27;100.00;97881.06;1225424;75;2898190;-74
2023/10/03 18:15:26;;;;;;;6.15;4.00;;;;;;;20.07;100.00;97881.72;1209771;75;4012739;-68
2023/10/03 18:17:59;;;;;;;5.55;3.85;;;;;;;20.05;100.00;97882.25;1211618;75;3889425;-73
2023/10/03 18:20:36;;;;;;;6.20;4.00;;;;;;;19.98;100.00;97874.56;1210964;75;4054763;-74
2023/10/03 18:23:10;;;;;;;5.50;3.60;;;;;;;20.04;100.00;97871.69;1224926;75;2919178;-70
2023/10/03 18:25:44;;;;;;;5.65;3.85;;;;;;;19.94;100.00;97869.34;1212558;75;3879667;-69
2023/10/03 18:28:17;;;;;;;5.45;3.55;;;;;;;19.94;100.00;97874.13;1223319;75;2914111;-69
2023/10/03 18:30:53;;;;;;;6.65;4.40;;;;;;;19.83;100.00;97874.38;1224892;75;2913938;-70
2023/10/03 18:33:28;;;;;;;5.15;3.40;;;;;;;19.75;100.00;97880.56;1221984;75;3009114;-73
2023/10/03 18:36:03;;;;;;;5.55;3.95;;;;;;;19.69;100.00;97879.91;1221309;75;3082231;-72
2023/10/03 18:38:36;;;;;;;6.90;4.50;;;;;;;19.67;100.00;97876.13;1224126;75;2935099;-71
2023/10/03 18:41:11;;;;;;;5.65;4.00;;;;;;;19.63;100.00;97878.50;1224173;75;2921389;-75
2023/10/03 18:43:47;;;;;;;6.20;3.75;;;;;;;19.64;100.00;97874.41;1223017;75;2942965;-71
2023/10/03 18:46:19;;;;;;;5.80;4.05;;;;;;;19.58;100.00;97880.81;1221553;75;3027516;-68
2023/10/03 18:48:53;;;;;;;6.30;4.45;;;;;;;19.45;100.00;97878.03;1219815;75;2952347;-73
2023/10/03 18:51:29;;;;;;;5.60;4.05;;;;;;;19.46;100.00;97879.53;1222116;75;2922394;-71
2023/10/03 18:54:01;;;;;;;5.20;3.95;;;;;;;19.37;100.00;97871.59;1223285;75;2937724;-72
2023/10/03 18:56:34;;;;;;;5.90;4.20;;;;;;;19.31;100.00;97879.28;1225310;75;2913781;-72
2023/10/03 18:59:07;;;;;;;7.20;4.60;;;;;;;19.27;100.00;97885.16;1221600;75;3039796;-67
2023/10/03 19:01:39;;;;;;;4.65;3.65;;;;;;;19.31;100.00;97887.59;1224363;75;2919826;-71
2023/10/03 19:04:13;;;;;;;5.90;4.20;;;;;;;19.12;100.00;97887.63;1146388;75;8918816;-68
2023/10/03 19:06:48;;;;;;;7.35;5.25;;;;;;;18.95;100.00;97896.22;1223671;75;2916011;-69
2023/10/03 19:09:23;;;;;;;7.90;4.75;;;;;;;19.08;100.00;97898.31;1223519;75;2915426;-75
2023/10/03 19:11:56;;;;;;;7.05;4.50;;;;;;;19.13;100.00;97897.47;1223899;75;2915045;-73
2023/10/03 19:14:28;;;;;;;6.70;4.50;;;;;;;19.16;100.00;97901.97;1222215;75;2922660;-72
2023/10/03 19:17:01;;;;;;;6.25;3.90;;;;;;;19.12;100.00;97896.75;1225067;75;2917612;-70
2023/10/03 19:19:38;;;;;;;4.70;3.60;;;;;;;19.07;100.00;97910.69;1224790;75;2916884;-70
2023/10/03 19:22:14;;;;;;;5.45;3.90;;;;;;;19.01;100.00;97916.31;1223465;75;2971900;-72
2023/10/03 19:24:50;;;;;;;5.50;3.95;;;;;;;19.03;100.00;97913.78;1224229;75;2919331;-71
2023/10/03 19:27:23;;;;;;;4.40;3.65;;;;;;;18.89;100.00;97903.91;1222356;75;2941221;-69
2023/10/03 19:29:56;;;;;;;6.65;3.50;;;;;;;18.82;100.00;97910.06;1210216;75;3985430;-75
2023/10/03 19:32:28;;;;;;;5.55;3.40;;;;;;;18.85;100.00;97912.50;1224485;75;2918304;-72
2023/10/03 19:35:01;;;;;;;5.80;4.20;;;;;;;18.84;100.00;97916.56;1224744;75;2920718;-71
2023/10/03 19:37:36;;;;;;;6.55;4.50;;;;;;;18.52;100.00;97922.03;1224773;75;2922751;-72
2023/10/03 19:40:12;;;;;;;6.00;4.10;;;;;;;18.67;100.00;97919.53;1211898;75;3870288;-69
2023/10/03 19:42:45;;;;;;;5.30;3.95;;;;;;;18.68;100.00;97931.38;1223876;75;2895660;-71
2023/10/03 19:45:18;;;;;;;5.60;3.95;;;;;;;18.72;100.00;97926.28;1223485;75;2919977;-68
2023/10/03 19:47:51;;;;;;;5.05;3.70;;;;;;;18.60;100.00;97919.41;1224156;75;2919566;-72
2023/10/03 19:50:26;;;;;;;5.10;3.60;;;;;;;18.56;100.00;97925.22;1209545;75;4064274;-71
2023/10/03 19:53:04;;;;;;;7.00;5.20;;;;;;;18.33;100.00;97919.22;1223818;75;2917171;-72
2023/10/03 19:55:40;;;;;;;7.40;5.10;;;;;;;18.48;100.00;97927.84;1224378;75;2932952;-67
2023/10/03 19:58:13;;;;;;;6.65;4.55;;;;;;;18.44;100.00;97930.16;1224318;75;2921691;-70
2023/10/03 20:00:46;;;;;;;6.75;4.45;;;;;;;18.36;100.00;97928.53;1224008;75;2915415;-74